Terminal Aerodrome Forecast
Issued by NWS Shreveport, LA

Home | Current Version | Previous Version | Text Only | Print | Product List | Glossary On
Versions: 1 2 3 4 5 6 7 8 9 10 11 12 13 14 15 16 17 18 19 20
000
FTUS44 KSHV 191916 AAB
TAFGGG
TAF AMD
KGGG 191916Z 1919/2018 21010KT P6SM OVC004
      TEMPO 1921/1923 BKN015
     FM200200 19011KT 5SM BR BKN015
     FM200500 18012KT 1SM BR OVC008
     FM200800 18012KT 1/2SM FG OVC003=

USA.gov is the U.S. government's official web portal to all federal, state and local government web resources and services.